Time;durP1;ratioP1;P1;durP2;ratioP2;P2;SDS_P1;SDS_P2;PMS_P1;PMS_P2;Temp;Humidity;BMP_temperature;BMP_pressure;BME280_temperature;BME280_humidity;BME280_pressure;Samples;Min_cycle;Max_cycle;Signal;HPM_P1;HPM_P2
2022/03/01 00:02:19;;;;;;;50.57;9.97;;;;;;;;;;5048573;28;20304;-54
2022/03/01 00:04:45;;;;;;;40.20;8.10;;;;;;;;;;5047166;28;20247;-54
2022/03/01 00:07:11;;;;;;;40.07;8.27;;;;;;;;;;5045879;28;20268;-54
2022/03/01 00:09:37;;;;;;;49.13;9.43;;;;;;;;;;5050618;28;20210;-54
2022/03/01 00:12:04;;;;;;;39.60;7.93;;;;;;;;;;5045834;28;20251;-54
2022/03/01 00:14:30;;;;;;;70.57;12.97;;;;;;;;;;5049308;28;20618;-54
2022/03/01 00:16:56;;;;;;;36.73;7.40;;;;;;;;;;5051643;28;20274;-54
2022/03/01 00:19:22;;;;;;;37.83;7.70;;;;;;;;;;5049918;28;21859;-54
2022/03/01 00:21:48;;;;;;;22.83;5.37;;;;;;;;;;5045589;28;20771;-54
2022/03/01 00:24:14;;;;;;;39.80;8.30;;;;;;;;;;5048275;28;20225;-54
2022/03/01 00:26:40;;;;;;;70.63;12.80;;;;;;;;;;5041458;28;20202;-54
2022/03/01 00:29:06;;;;;;;30.73;6.43;;;;;;;;;;5050853;28;20285;-54
2022/03/01 00:31:32;;;;;;;37.40;8.07;;;;;;;;;;5047435;28;20206;-54
2022/03/01 00:33:58;;;;;;;43.33;8.33;;;;;;;;;;5046190;28;20195;-54
2022/03/01 00:36:24;;;;;;;35.83;7.57;;;;;;;;;;5044772;28;20197;-54
2022/03/01 00:38:50;;;;;;;66.23;12.07;;;;;;;;;;5052538;28;20210;-54
2022/03/01 00:41:16;;;;;;;36.50;7.50;;;;;;;;;;5049274;28;20210;-54
2022/03/01 00:43:42;;;;;;;46.10;9.43;;;;;;;;;;5049962;28;20183;-54
2022/03/01 00:46:08;;;;;;;48.80;9.13;;;;;;;;;;5048091;28;20532;-54
2022/03/01 00:48:34;;;;;;;36.53;7.40;;;;;;;;;;5048323;28;20242;-54
2022/03/01 00:51:00;;;;;;;37.97;7.73;;;;;;;;;;5046088;28;20180;-54
2022/03/01 00:53:26;;;;;;;39.90;7.93;;;;;;;;;;5049216;28;20592;-54
2022/03/01 00:55:51;;;;;;;43.93;8.57;;;;;;;;;;5048454;28;20341;-55
2022/03/01 00:58:17;;;;;;;50.33;9.67;;;;;;;;;;5046024;28;20294;-54
2022/03/01 01:00:43;;;;;;;40.73;8.07;;;;;;;;;;5050479;28;20187;-54
2022/03/01 01:03:09;;;;;;;61.13;11.33;;;;;;;;;;5048838;28;20225;-54
2022/03/01 01:05:35;;;;;;;31.60;6.57;;;;;;;;;;5044459;28;20298;-54
2022/03/01 01:08:01;;;;;;;32.00;7.23;;;;;;;;;;5045786;28;20218;-54
2022/03/01 01:10:27;;;;;;;24.63;5.50;;;;;;;;;;5049680;28;20208;-54
2022/03/01 01:12:53;;;;;;;43.03;8.70;;;;;;;;;;5045816;28;20245;-54
2022/03/01 01:15:20;;;;;;;62.03;11.53;;;;;;;;;;5045790;28;20298;-54
2022/03/01 01:17:46;;;;;;;52.23;10.30;;;;;;;;;;5051155;28;20298;-54
2022/03/01 01:20:12;;;;;;;24.90;6.03;;;;;;;;;;5042230;28;20548;-54
2022/03/01 01:22:41;;;;;;;61.63;11.47;;;;;;;;;;5051033;28;20213;-54
2022/03/01 01:25:07;;;;;;;31.77;7.20;;;;;;;;;;5048457;28;20200;-54
2022/03/01 01:27:33;;;;;;;32.60;7.17;;;;;;;;;;5044559;28;20262;-54
2022/03/01 01:29:59;;;;;;;50.87;9.73;;;;;;;;;;5044767;28;20640;-54
2022/03/01 01:32:25;;;;;;;44.83;8.73;;;;;;;;;;5051353;28;20276;-54
2022/03/01 01:34:52;;;;;;;62.63;11.70;;;;;;;;;;5045885;28;20654;-54
2022/03/01 01:37:19;;;;;;;41.20;8.60;;;;;;;;;;5056174;28;20187;-55
2022/03/01 01:39:45;;;;;;;63.57;11.03;;;;;;;;;;5038715;28;20343;-55
2022/03/01 01:42:11;;;;;;;43.37;8.50;;;;;;;;;;5047517;28;20320;-55
2022/03/01 01:44:37;;;;;;;36.07;7.23;;;;;;;;;;5053973;28;20244;-55
2022/03/01 01:47:03;;;;;;;37.10;7.47;;;;;;;;;;5051158;28;20764;-55
2022/03/01 01:49:29;;;;;;;44.40;8.47;;;;;;;;;;5057438;28;20827;-54
2022/03/01 01:51:55;;;;;;;44.67;8.67;;;;;;;;;;5048282;28;20217;-54
2022/03/01 01:54:21;;;;;;;45.00;8.60;;;;;;;;;;5052167;28;20369;-55
2022/03/01 01:56:47;;;;;;;54.30;10.53;;;;;;;;;;5049585;28;20353;-55
2022/03/01 01:59:13;;;;;;;36.13;7.63;;;;;;;;;;5051186;28;20187;-55
2022/03/01 02:01:39;;;;;;;46.10;8.63;;;;;;;;;;5048085;28;20250;-55
2022/03/01 02:04:05;;;;;;;36.97;7.63;;;;;;;;;;5050576;28;20271;-55
2022/03/01 02:06:30;;;;;;;43.50;8.40;;;;;;;;;;5046660;28;20190;-55
2022/03/01 02:08:56;;;;;;;67.57;12.23;;;;;;;;;;5049301;28;20187;-55
2022/03/01 02:11:22;;;;;;;63.60;11.33;;;;;;;;;;5050930;28;20182;-56
2022/03/01 02:13:48;;;;;;;46.03;8.93;;;;;;;;;;5051670;28;20469;-55
2022/03/01 02:16:14;;;;;;;34.23;7.30;;;;;;;;;;5055825;28;20282;-55
2022/03/01 02:18:40;;;;;;;38.37;8.17;;;;;;;;;;5052374;28;20187;-56
2022/03/01 02:21:06;;;;;;;89.80;16.07;;;;;;;;;;5049825;28;20251;-56
2022/03/01 02:23:32;;;;;;;71.20;13.67;;;;;;;;;;5044038;28;20211;-55
2022/03/01 02:25:58;;;;;;;57.70;11.23;;;;;;;;;;5051022;28;20206;-54
2022/03/01 02:28:24;;;;;;;36.90;7.87;;;;;;;;;;5053538;28;20543;-55
2022/03/01 02:30:50;;;;;;;60.77;11.03;;;;;;;;;;5048014;28;20635;-55
2022/03/01 02:33:16;;;;;;;47.63;9.57;;;;;;;;;;5051971;28;20198;-56
2022/03/01 02:35:42;;;;;;;39.17;7.77;;;;;;;;;;5050814;28;20226;-55
2022/03/01 02:38:08;;;;;;;42.17;8.10;;;;;;;;;;5053838;28;20723;-55
2022/03/01 02:40:34;;;;;;;43.50;8.77;;;;;;;;;;5052463;28;20271;-55
2022/03/01 02:43:00;;;;;;;52.30;10.07;;;;;;;;;;5044302;28;20444;-54
2022/03/01 02:45:26;;;;;;;46.60;8.87;;;;;;;;;;5049285;28;20643;-54
2022/03/01 02:47:52;;;;;;;48.57;8.90;;;;;;;;;;5049621;28;20187;-55
2022/03/01 02:50:18;;;;;;;61.93;11.53;;;;;;;;;;5046127;28;20277;-56
2022/03/01 02:52:44;;;;;;;57.57;10.27;;;;;;;;;;5053089;28;20270;-54
2022/03/01 02:55:10;;;;;;;28.77;6.53;;;;;;;;;;5051555;28;20678;-55
2022/03/01 02:57:36;;;;;;;35.10;6.93;;;;;;;;;;5049577;28;20265;-55
2022/03/01 03:00:04;;;;;;;37.87;7.23;;;;;;;;;;5050153;28;20262;-54
2022/03/01 03:02:30;;;;;;;56.30;10.97;;;;;;;;;;5049877;28;20215;-54
2022/03/01 03:04:56;;;;;;;69.10;13.00;;;;;;;;;;5048886;28;20222;-54
2022/03/01 03:07:22;;;;;;;44.73;8.80;;;;;;;;;;5053706;28;20643;-56
2022/03/01 03:09:48;;;;;;;51.30;9.83;;;;;;;;;;5052130;28;20191;-55
2022/03/01 03:12:14;;;;;;;61.50;10.63;;;;;;;;;;5048061;28;20191;-55
2022/03/01 03:14:40;;;;;;;73.03;13.30;;;;;;;;;;5050785;28;20679;-55
2022/03/01 03:17:06;;;;;;;30.90;6.37;;;;;;;;;;5049585;28;20249;-55
2022/03/01 03:19:32;;;;;;;31.57;6.50;;;;;;;;;;5050733;28;20274;-55
2022/03/01 03:21:58;;;;;;;43.40;8.27;;;;;;;;;;5047133;28;20294;-55
2022/03/01 03:24:25;;;;;;;47.70;9.00;;;;;;;;;;5051263;28;20207;-55
2022/03/01 03:26:51;;;;;;;63.27;11.60;;;;;;;;;;5046427;28;20547;-55
2022/03/01 03:29:18;;;;;;;33.30;7.13;;;;;;;;;;5053856;28;20217;-55
2022/03/01 03:31:44;;;;;;;41.60;8.00;;;;;;;;;;5050954;28;20178;-55
2022/03/01 03:34:11;;;;;;;55.17;9.97;;;;;;;;;;5048800;28;20204;-54
2022/03/01 03:36:37;;;;;;;44.93;8.80;;;;;;;;;;5049961;28;20667;-54
2022/03/01 03:39:04;;;;;;;34.60;6.63;;;;;;;;;;5046029;28;20271;-55
2022/03/01 03:41:30;;;;;;;62.13;11.77;;;;;;;;;;5045301;28;20417;-55
2022/03/01 03:43:56;;;;;;;43.23;8.63;;;;;;;;;;5049332;28;20258;-55
2022/03/01 03:46:22;;;;;;;61.60;11.10;;;;;;;;;;5051794;28;20221;-54
2022/03/01 03:48:48;;;;;;;54.20;10.40;;;;;;;;;;5049333;28;20253;-55
2022/03/01 03:51:15;;;;;;;45.83;9.00;;;;;;;;;;5050524;28;20253;-55
2022/03/01 03:53:41;;;;;;;38.37;7.80;;;;;;;;;;5051429;28;20438;-55
2022/03/01 03:56:07;;;;;;;90.57;15.87;;;;;;;;;;5046356;28;20329;-55
2022/03/01 03:58:33;;;;;;;36.47;7.67;;;;;;;;;;5049096;28;20271;-56
2022/03/01 04:00:59;;;;;;;56.57;10.17;;;;;;;;;;5050467;28;20332;-56
2022/03/01 04:03:24;;;;;;;44.30;9.17;;;;;;;;;;5048756;28;20551;-55
2022/03/01 04:05:51;;;;;;;50.10;7.93;;;;;;;;;;5057825;23;20549;-55
2022/03/01 04:08:17;;;;;;;39.53;6.40;;;;;;;;;;5033361;28;20190;-55
2022/03/01 04:10:44;;;;;;;54.80;8.87;;;;;;;;;;5035329;28;20183;-55
2022/03/01 04:13:10;;;;;;;25.37;4.37;;;;;;;;;;5016403;28;20183;-55
2022/03/01 04:15:36;;;;;;;29.60;5.20;;;;;;;;;;5034469;28;20207;-55
2022/03/01 04:18:03;;;;;;;34.90;5.57;;;;;;;;;;5037124;28;20184;-55
2022/03/01 04:20:29;;;;;;;56.70;9.00;;;;;;;;;;5035159;28;20282;-56
2022/03/01 04:22:55;;;;;;;45.30;7.47;;;;;;;;;;5030528;28;20254;-55
2022/03/01 04:25:21;;;;;;;22.03;4.17;;;;;;;;;;5034796;28;20290;-56
2022/03/01 04:27:47;;;;;;;37.27;6.10;;;;;;;;;;5036550;28;20183;-56
2022/03/01 04:30:13;;;;;;;33.23;4.80;;;;;;;;;;5035872;28;20253;-56
2022/03/01 04:32:40;;;;;;;44.43;7.20;;;;;;;;;;5037794;28;20603;-55
2022/03/01 04:35:08;;;;;;;38.10;6.23;;;;;;;;;;5033750;28;20211;-57
2022/03/01 04:37:34;;;;;;;43.10;6.90;;;;;;;;;;5036472;28;20192;-56
2022/03/01 04:39:59;;;;;;;40.40;6.57;;;;;;;;;;5035418;28;20179;-55
2022/03/01 04:42:25;;;;;;;31.83;4.77;;;;;;;;;;5038202;28;20458;-55
2022/03/01 04:44:52;;;;;;;62.43;10.20;;;;;;;;;;5036677;28;20203;-55
2022/03/01 04:47:18;;;;;;;37.80;6.00;;;;;;;;;;5038126;28;20183;-56
2022/03/01 04:49:43;;;;;;;58.07;9.47;;;;;;;;;;5034430;28;20236;-56
2022/03/01 04:52:09;;;;;;;46.97;7.20;;;;;;;;;;5032552;28;20193;-56
2022/03/01 04:54:35;;;;;;;48.10;7.53;;;;;;;;;;5037108;28;21810;-56
2022/03/01 04:57:01;;;;;;;37.67;6.27;;;;;;;;;;5035019;28;20380;-56
2022/03/01 04:59:27;;;;;;;46.17;7.63;;;;;;;;;;5041531;28;20187;-55
2022/03/01 05:01:53;;;;;;;53.63;8.40;;;;;;;;;;5034497;28;20207;-56
2022/03/01 05:04:19;;;;;;;72.37;11.47;;;;;;;;;;5031676;28;20235;-55
2022/03/01 05:06:45;;;;;;;65.27;10.57;;;;;;;;;;5034007;28;20187;-56
2022/03/01 05:09:12;;;;;;;62.77;9.27;;;;;;;;;;5042778;28;21309;-56
2022/03/01 05:11:38;;;;;;;63.87;10.23;;;;;;;;;;5034077;28;20180;-56
2022/03/01 05:14:04;;;;;;;53.40;8.33;;;;;;;;;;5036050;28;20217;-57
2022/03/01 05:16:30;;;;;;;44.47;7.23;;;;;;;;;;5037251;28;20661;-56
2022/03/01 05:18:56;;;;;;;43.63;6.67;;;;;;;;;;5038781;28;20255;-56
2022/03/01 05:21:22;;;;;;;48.60;7.80;;;;;;;;;;5031984;28;20230;-56
2022/03/01 05:23:48;;;;;;;36.43;6.23;;;;;;;;;;5035073;28;20188;-56
2022/03/01 05:26:14;;;;;;;57.90;9.47;;;;;;;;;;5035741;28;20274;-56
2022/03/01 05:28:40;;;;;;;45.53;7.03;;;;;;;;;;5033499;28;20601;-56
2022/03/01 05:31:06;;;;;;;70.40;11.27;;;;;;;;;;5028044;28;20211;-55
2022/03/01 05:33:32;;;;;;;65.13;10.73;;;;;;;;;;5034001;28;20188;-56
2022/03/01 05:35:58;;;;;;;75.77;12.33;;;;;;;;;;5035161;28;20728;-56
2022/03/01 05:38:24;;;;;;;44.60;7.00;;;;;;;;;;5035806;28;20179;-56
2022/03/01 05:40:50;;;;;;;41.33;6.37;;;;;;;;;;5033661;28;20188;-56
2022/03/01 05:43:16;;;;;;;53.07;8.70;;;;;;;;;;5030479;28;20496;-56
2022/03/01 05:45:42;;;;;;;32.27;5.30;;;;;;;;;;5038199;28;20203;-56
2022/03/01 05:48:08;;;;;;;31.57;5.23;;;;;;;;;;5036498;28;20520;-56
2022/03/01 05:50:34;;;;;;;42.57;7.13;;;;;;;;;;5035909;28;20547;-56
2022/03/01 05:53:00;;;;;;;63.57;10.20;;;;;;;;;;5035940;28;20188;-56
2022/03/01 05:55:26;;;;;;;38.20;6.37;;;;;;;;;;5036188;28;20274;-56
2022/03/01 05:57:52;;;;;;;36.07;5.93;;;;;;;;;;5028393;28;20252;-56
2022/03/01 06:00:19;;;;;;;18.17;3.60;;;;;;;;;;5033418;28;20198;-56
2022/03/01 06:02:45;;;;;;;38.43;5.90;;;;;;;;;;5042062;28;20242;-56
2022/03/01 06:05:12;;;;;;;39.37;6.23;;;;;;;;;;5034749;28;20273;-56
2022/03/01 06:07:38;;;;;;;28.30;4.60;;;;;;;;;;5041850;28;20176;-56
2022/03/01 06:10:04;;;;;;;46.47;7.67;;;;;;;;;;5041479;28;20184;-56
2022/03/01 06:12:30;;;;;;;28.17;4.40;;;;;;;;;;5039910;28;20532;-56
2022/03/01 06:14:56;;;;;;;49.10;7.80;;;;;;;;;;5032733;28;20204;-56
2022/03/01 06:17:22;;;;;;;56.53;8.87;;;;;;;;;;5041671;28;20184;-56
2022/03/01 06:19:48;;;;;;;60.03;9.80;;;;;;;;;;5035308;28;20527;-56
2022/03/01 06:22:14;;;;;;;38.43;6.07;;;;;;;;;;5044310;28;20552;-57
2022/03/01 06:24:42;;;;;;;35.70;5.70;;;;;;;;;;5044676;28;20264;-56
2022/03/01 06:27:08;;;;;;;71.27;10.97;;;;;;;;;;5035962;28;20187;-56
2022/03/01 06:29:35;;;;;;;47.17;7.53;;;;;;;;;;5036408;28;20192;-58
2022/03/01 06:32:01;;;;;;;57.10;9.27;;;;;;;;;;5034888;28;20738;-57
2022/03/01 06:34:27;;;;;;;56.97;9.10;;;;;;;;;;5037971;28;20779;-57
2022/03/01 06:36:53;;;;;;;67.50;9.40;;;;;;;;;;5033327;28;20715;-57
2022/03/01 06:39:19;;;;;;;75.47;11.37;;;;;;;;;;5018611;28;20191;-58
2022/03/01 06:41:45;;;;;;;48.80;8.53;;;;;;;;;;5035578;28;20222;-57
2022/03/01 06:44:11;;;;;;;80.27;12.33;;;;;;;;;;5013012;28;20215;-57
2022/03/01 06:46:37;;;;;;;41.40;6.57;;;;;;;;;;5041733;28;21037;-57
2022/03/01 06:49:03;;;;;;;32.67;5.23;;;;;;;;;;5040260;28;20258;-58
2022/03/01 06:51:29;;;;;;;74.87;12.13;;;;;;;;;;5039111;28;20183;-57
2022/03/01 06:53:55;;;;;;;34.50;5.30;;;;;;;;;;5040544;28;20187;-57
2022/03/01 06:56:21;;;;;;;43.63;6.87;;;;;;;;;;5039060;28;20187;-57
2022/03/01 06:58:47;;;;;;;44.07;7.10;;;;;;;;;;5040125;28;20249;-57
2022/03/01 07:01:13;;;;;;;30.87;4.83;;;;;;;;;;5039142;28;20313;-57
2022/03/01 07:03:42;;;;;;;49.50;7.67;;;;;;;;;;5037689;28;20215;-57
2022/03/01 07:06:08;;;;;;;54.07;8.63;;;;;;;;;;5034881;28;20273;-57
2022/03/01 07:08:34;;;;;;;51.40;8.07;;;;;;;;;;5032985;28;20708;-57
2022/03/01 07:10:59;;;;;;;81.23;13.47;;;;;;;;;;5027579;28;20179;-57
2022/03/01 07:13:26;;;;;;;92.30;14.93;;;;;;;;;;5029214;28;20211;-57
2022/03/01 07:15:51;;;;;;;60.70;9.43;;;;;;;;;;5032312;28;20679;-57
2022/03/01 07:18:17;;;;;;;31.23;4.73;;;;;;;;;;5041832;28;20194;-57
2022/03/01 07:20:43;;;;;;;89.70;14.43;;;;;;;;;;5017171;28;20184;-58
2022/03/01 07:23:10;;;;;;;37.30;6.10;;;;;;;;;;5031335;28;20286;-58
2022/03/01 07:25:36;;;;;;;41.53;6.77;;;;;;;;;;5033507;28;23106;-58
2022/03/01 07:28:03;;;;;;;47.47;7.57;;;;;;;;;;5029997;28;20615;-57
2022/03/01 07:30:29;;;;;;;52.47;8.13;;;;;;;;;;5042915;28;20188;-58
2022/03/01 07:32:59;;;;;;;57.57;8.70;;;;;;;;;;5027350;28;20655;-58
2022/03/01 07:35:26;;;;;;;42.07;6.33;;;;;;;;;;5031275;28;20689;-58
2022/03/01 07:37:52;;;;;;;75.67;12.30;;;;;;;;;;5028488;28;20262;-56
2022/03/01 07:40:19;;;;;;;113.10;17.43;;;;;;;;;;5027946;28;20597;-55
2022/03/01 07:42:45;;;;;;;70.53;11.07;;;;;;;;;;5017566;28;20321;-54
2022/03/01 07:45:12;;;;;;;62.63;10.23;;;;;;;;;;5015750;28;20667;-54
2022/03/01 07:47:38;;;;;;;36.20;5.43;;;;;;;;;;5043066;28;20341;-54
2022/03/01 07:50:05;;;;;;;35.77;5.67;;;;;;;;;;5025734;28;20187;-54
2022/03/01 07:52:31;;;;;;;79.50;12.20;;;;;;;;;;5035234;28;20199;-54
2022/03/01 07:54:57;;;;;;;83.97;13.43;;;;;;;;;;5035338;28;20215;-54
2022/03/01 07:57:23;;;;;;;113.47;17.93;;;;;;;;;;5009709;28;20184;-54
2022/03/01 07:59:49;;;;;;;12.50;2.10;;;;;;;;;;5049521;28;20194;-54
2022/03/01 08:02:15;;;;;;;14.23;2.40;;;;;;;;;;5051409;28;20407;-56
2022/03/01 08:04:42;;;;;;;7.53;1.53;;;;;;;;;;5050756;28;20203;-56
2022/03/01 08:07:11;;;;;;;21.73;3.33;;;;;;;;;;5050995;28;20639;-56
2022/03/01 08:09:37;;;;;;;47.50;6.57;;;;;;;;;;5050548;28;20538;-56
2022/03/01 08:12:04;;;;;;;21.87;3.27;;;;;;;;;;5051035;28;20176;-56
2022/03/01 08:14:31;;;;;;;21.13;3.27;;;;;;;;;;5057402;28;20503;-56
2022/03/01 08:16:57;;;;;;;29.10;4.20;;;;;;;;;;5070364;28;20371;-56
2022/03/01 08:19:23;;;;;;;71.67;11.57;;;;;;;;;;5044795;28;20643;-52
2022/03/01 08:21:49;;;;;;;69.87;10.37;;;;;;;;;;5033593;28;20349;-52
2022/03/01 08:24:16;;;;;;;57.03;8.63;;;;;;;;;;5029809;28;20203;-52
2022/03/01 08:26:42;;;;;;;107.50;16.20;;;;;;;;;;5032509;28;20210;-52
2022/03/01 08:29:08;;;;;;;32.27;4.60;;;;;;;;;;5049544;28;20509;-56
2022/03/01 08:31:36;;;;;;;28.17;4.13;;;;;;;;;;5050614;28;20183;-56
2022/03/01 08:34:01;;;;;;;27.37;3.97;;;;;;;;;;5050116;28;20179;-55
2022/03/01 08:36:28;;;;;;;19.60;3.07;;;;;;;;;;5050385;28;20175;-55
2022/03/01 08:38:54;;;;;;;41.57;5.90;;;;;;;;;;5050172;28;20174;-56
2022/03/01 08:41:20;;;;;;;28.50;4.27;;;;;;;;;;5049664;28;20171;-56
2022/03/01 08:43:46;;;;;;;20.53;3.13;;;;;;;;;;5050311;28;20532;-55
2022/03/01 08:46:12;;;;;;;36.13;5.20;;;;;;;;;;5049618;28;20229;-55
2022/03/01 08:48:38;;;;;;;34.57;4.97;;;;;;;;;;5046974;28;20202;-56
2022/03/01 08:51:04;;;;;;;33.87;4.87;;;;;;;;;;5049601;28;21018;-55
2022/03/01 08:53:31;;;;;;;31.17;4.37;;;;;;;;;;5050031;28;20214;-56
2022/03/01 08:55:57;;;;;;;26.87;3.90;;;;;;;;;;5049809;28;20290;-56
2022/03/01 08:58:23;;;;;;;18.50;2.90;;;;;;;;;;5032051;28;20266;-55
2022/03/01 09:00:49;;;;;;;28.17;4.10;;;;;;;;;;5050445;28;20225;-56
2022/03/01 09:03:15;;;;;;;24.93;3.77;;;;;;;;;;5049882;28;20195;-55
2022/03/01 09:05:41;;;;;;;26.37;4.00;;;;;;;;;;5050062;28;20245;-56
2022/03/01 09:08:09;;;;;;;62.63;8.33;;;;;;;;;;5049760;28;20190;-55
2022/03/01 09:10:35;;;;;;;14.57;2.47;;;;;;;;;;5050297;28;20650;-55
2022/03/01 09:13:01;;;;;;;20.33;3.17;;;;;;;;;;5050276;28;20179;-55
2022/03/01 09:15:30;;;;;;;24.53;3.67;;;;;;;;;;5062761;28;20207;-55
2022/03/01 09:17:57;;;;;;;31.37;4.43;;;;;;;;;;5041844;28;20264;-55
2022/03/01 09:20:23;;;;;;;21.50;3.27;;;;;;;;;;5049666;28;20398;-56
2022/03/01 09:22:49;;;;;;;21.20;3.27;;;;;;;;;;5049641;28;20527;-55
2022/03/01 09:25:15;;;;;;;17.83;2.80;;;;;;;;;;5049879;28;20206;-56
2022/03/01 09:27:41;;;;;;;24.50;3.70;;;;;;;;;;5048820;28;20569;-54
2022/03/01 09:30:08;;;;;;;20.47;3.13;;;;;;;;;;5065853;28;20186;-55
2022/03/01 09:32:34;;;;;;;32.47;4.53;;;;;;;;;;5055543;28;20660;-56
2022/03/01 09:35:01;;;;;;;15.87;2.60;;;;;;;;;;5050266;28;20679;-56
2022/03/01 09:37:28;;;;;;;38.40;5.43;;;;;;;;;;5049534;28;20254;-56
2022/03/01 09:39:53;;;;;;;10.77;1.97;;;;;;;;;;5050070;28;20183;-56
2022/03/01 09:42:20;;;;;;;26.03;3.97;;;;;;;;;;5049710;28;20283;-55
2022/03/01 09:44:45;;;;;;;23.47;3.60;;;;;;;;;;5049236;28;20276;-56
2022/03/01 09:47:11;;;;;;;36.00;5.17;;;;;;;;;;5065580;28;20175;-55
2022/03/01 09:49:37;;;;;;;22.70;3.50;;;;;;;;;;5047985;28;20180;-55
2022/03/01 09:52:03;;;;;;;33.47;4.80;;;;;;;;;;5050108;28;20184;-56
2022/03/01 09:54:29;;;;;;;34.70;4.80;;;;;;;;;;5053425;28;20200;-55
2022/03/01 09:56:56;;;;;;;21.43;3.23;;;;;;;;;;5053835;28;20654;-55
2022/03/01 09:59:21;;;;;;;16.60;2.63;;;;;;;;;;5047855;28;20191;-56
2022/03/01 10:01:51;;;;;;;31.23;4.40;;;;;;;;;;5042537;28;20187;-54
2022/03/01 10:04:18;;;;;;;21.30;3.30;;;;;;;;;;5053499;28;20791;-55
2022/03/01 10:06:45;;;;;;;92.50;16.23;;;;;;;;;;5050126;22;20247;-57
2022/03/01 10:09:14;;;;;;;85.27;15.73;;;;;;;;;;5034483;28;20278;-56
2022/03/01 10:11:40;;;;;;;89.83;15.60;;;;;;;;;;5049234;28;20662;-56
2022/03/01 10:14:07;;;;;;;62.27;11.43;;;;;;;;;;5051747;28;20192;-56
2022/03/01 10:16:59;;;;;;;43.43;8.77;;;;;;;;;;5054671;28;20576;-56
2022/03/01 10:19:25;;;;;;;41.87;8.57;;;;;;;;;;5044167;28;20192;-56
2022/03/01 10:21:57;;;;;;;59.50;11.23;;;;;;;;;;5030862;28;20197;-57
2022/03/01 10:24:23;;;;;;;73.73;13.93;;;;;;;;;;5029360;28;20656;-57
2022/03/01 10:26:49;;;;;;;47.27;10.23;;;;;;;;;;5032278;28;20191;-56
2022/03/01 10:29:17;;;;;;;69.47;13.67;;;;;;;;;;5035907;28;20335;-57
2022/03/01 10:31:49;;;;;;;79.97;14.87;;;;;;;;;;5010171;28;20248;-57
2022/03/01 10:34:18;;;;;;;73.97;14.03;;;;;;;;;;5030511;28;20215;-55
2022/03/01 10:36:46;;;;;;;86.20;16.03;;;;;;;;;;5028724;28;20315;-56
2022/03/01 10:39:14;;;;;;;18.00;5.23;;;;;;;;;;5040556;28;20192;-57
2022/03/01 10:41:41;;;;;;;87.13;15.33;;;;;;;;;;5032656;28;20243;-56
2022/03/01 10:44:12;;;;;;;37.80;7.83;;;;;;;;;;5029721;28;20721;-56
2022/03/01 10:46:41;;;;;;;73.03;13.63;;;;;;;;;;5041021;28;20288;-55
2022/03/01 10:49:09;;;;;;;83.80;15.80;;;;;;;;;;5042544;28;20179;-56
2022/03/01 10:51:55;;;;;;;79.47;14.97;;;;;;;;;;5034121;28;20183;-56
2022/03/01 10:54:28;;;;;;;60.70;12.07;;;;;;;;;;5036179;28;20282;-55
2022/03/01 10:56:55;;;;;;;66.53;12.87;;;;;;;;;;5040828;28;20640;-56
2022/03/01 10:59:22;;;;;;;58.67;11.50;;;;;;;;;;5043316;28;20241;-55
2022/03/01 11:01:48;;;;;;;79.47;15.10;;;;;;;;;;5041841;28;20191;-55
2022/03/01 11:04:14;;;;;;;68.60;12.80;;;;;;;;;;5040699;28;20777;-56
2022/03/01 11:06:41;;;;;;;125.50;22.60;;;;;;;;;;5023788;28;20194;-58
2022/03/01 11:09:08;;;;;;;80.20;14.70;;;;;;;;;;5016525;28;20349;-57
2022/03/01 11:11:35;;;;;;;70.50;14.45;;;;;;;;;;5035544;28;20174;-56
2022/03/01 11:14:03;;;;;;;66.97;13.27;;;;;;;;;;5037188;28;20595;-56
2022/03/01 11:16:36;;;;;;;39.30;8.30;;;;;;;;;;5046953;28;20174;-56
2022/03/01 11:19:17;;;;;;;66.60;13.27;;;;;;;;;;5042894;28;20699;-58
2022/03/01 11:21:45;;;;;;;60.97;11.67;;;;;;;;;;5041293;28;20202;-57
2022/03/01 11:24:12;;;;;;;96.07;18.40;;;;;;;;;;5029316;28;20223;-56
2022/03/01 11:26:39;;;;;;;56.97;11.80;;;;;;;;;;5037848;28;20186;-57
2022/03/01 11:29:12;;;;;;;49.93;9.87;;;;;;;;;;5042371;28;20484;-57
2022/03/01 11:31:39;;;;;;;57.03;11.40;;;;;;;;;;5045644;28;20320;-56
2022/03/01 11:34:13;;;;;;;71.20;13.23;;;;;;;;;;5045308;28;20212;-55
2022/03/01 11:36:39;;;;;;;42.97;8.80;;;;;;;;;;5047672;28;20656;-56
2022/03/01 11:39:15;;;;;;;38.03;8.07;;;;;;;;;;5049247;28;20575;-56
2022/03/01 11:41:47;;;;;;;45.10;9.30;;;;;;;;;;5042517;28;20617;-55
2022/03/01 11:44:17;;;;;;;53.80;10.57;;;;;;;;;;5049112;28;20218;-56
2022/03/01 11:46:44;;;;;;;59.13;11.27;;;;;;;;;;5050479;28;20571;-56
2022/03/01 11:49:11;;;;;;;42.63;9.13;;;;;;;;;;5040363;28;20749;-56
2022/03/01 11:51:39;;;;;;;69.37;12.80;;;;;;;;;;5045945;28;20187;-56
2022/03/01 11:54:07;;;;;;;22.07;5.07;;;;;;;;;;5052354;28;20202;-56
2022/03/01 11:56:37;;;;;;;79.37;14.60;;;;;;;;;;5044376;28;20195;-56
2022/03/01 11:59:04;;;;;;;36.30;7.53;;;;;;;;;;5054348;28;20184;-57
2022/03/01 12:01:32;;;;;;;22.67;5.77;;;;;;;;;;5059102;28;20190;-56
2022/03/01 12:04:00;;;;;;;64.47;11.87;;;;;;;;;;5041816;28;20203;-56
2022/03/01 12:06:28;;;;;;;28.57;5.93;;;;;;;;;;5052979;28;20199;-55
2022/03/01 12:08:58;;;;;;;64.83;12.10;;;;;;;;;;5046774;28;20607;-56
2022/03/01 12:11:33;;;;;;;54.67;10.97;;;;;;;;;;5028195;28;20188;-57
2022/03/01 12:14:04;;;;;;;35.37;7.23;;;;;;;;;;5056858;28;20303;-57
2022/03/01 12:16:31;;;;;;;30.30;6.27;;;;;;;;;;5053097;28;20312;-55
2022/03/01 12:19:09;;;;;;;77.50;14.00;;;;;;;;;;5050482;28;20183;-58
2022/03/01 12:21:36;;;;;;;43.87;8.70;;;;;;;;;;5044849;28;20625;-55
2022/03/01 12:24:02;;;;;;;89.53;16.63;;;;;;;;;;5039180;28;20212;-57
2022/03/01 12:26:28;;;;;;;75.33;13.53;;;;;;;;;;5042156;28;20187;-55
2022/03/01 12:28:58;;;;;;;60.13;11.23;;;;;;;;;;5043727;28;20187;-55
2022/03/01 12:31:26;;;;;;;48.40;10.20;;;;;;;;;;5049497;28;20361;-56
2022/03/01 12:33:55;;;;;;;75.47;13.97;;;;;;;;;;5041233;28;20622;-57
2022/03/01 12:36:31;;;;;;;70.77;12.70;;;;;;;;;;5024983;28;20195;-57
2022/03/01 12:38:59;;;;;;;130.50;21.17;;;;;;;;;;5041365;28;20669;-56
2022/03/01 12:41:25;;;;;;;94.17;16.63;;;;;;;;;;5044246;28;20255;-56
2022/03/01 12:43:56;;;;;;;33.33;6.87;;;;;;;;;;5052837;28;20318;-57
2022/03/01 12:46:22;;;;;;;34.13;6.67;;;;;;;;;;5052943;28;20183;-56
2022/03/01 12:48:48;;;;;;;30.67;6.60;;;;;;;;;;5054401;28;20179;-55
2022/03/01 12:51:15;;;;;;;62.43;11.97;;;;;;;;;;5042685;28;20186;-55
2022/03/01 12:53:54;;;;;;;36.53;7.60;;;;;;;;;;5058823;28;20188;-56
2022/03/01 12:56:21;;;;;;;52.97;10.50;;;;;;;;;;5053593;28;20240;-55
2022/03/01 12:58:48;;;;;;;39.03;7.07;;;;;;;;;;5054421;28;20674;-56
2022/03/01 13:01:14;;;;;;;36.13;7.73;;;;;;;;;;5051036;28;20193;-55
2022/03/01 13:03:40;;;;;;;37.20;7.77;;;;;;;;;;5052372;28;20202;-54
2022/03/01 13:06:14;;;;;;;48.27;9.60;;;;;;;;;;5055485;28;20211;-54
2022/03/01 13:08:42;;;;;;;50.83;9.27;;;;;;;;;;5054967;28;20883;-54
2022/03/01 13:11:09;;;;;;;57.27;11.33;;;;;;;;;;5048604;28;20632;-56
2022/03/01 13:13:56;;;;;;;40.20;8.27;;;;;;;;;;5030450;28;20603;-56
2022/03/01 13:16:22;;;;;;;27.43;6.13;;;;;;;;;;5046760;28;20188;-55
2022/03/01 13:19:10;;;;;;;44.90;8.87;;;;;;;;;;5056500;28;20472;-55
2022/03/01 13:21:37;;;;;;;28.90;6.47;;;;;;;;;;5051846;28;20191;-55
2022/03/01 13:24:11;;;;;;;36.20;7.40;;;;;;;;;;5046945;28;20769;-55
2022/03/01 13:26:38;;;;;;;54.17;10.97;;;;;;;;;;5047066;28;20191;-56
2022/03/01 13:29:08;;;;;;;43.90;8.93;;;;;;;;;;5056100;28;20740;-56
2022/03/01 13:31:34;;;;;;;53.97;10.07;;;;;;;;;;5057038;28;20520;-55
2022/03/01 13:34:00;;;;;;;55.90;10.43;;;;;;;;;;5056379;28;20610;-55
2022/03/01 13:36:30;;;;;;;33.73;7.00;;;;;;;;;;5054907;28;20449;-55
2022/03/01 13:38:56;;;;;;;39.67;7.87;;;;;;;;;;5053686;28;20659;-55
2022/03/01 13:41:26;;;;;;;48.22;9.52;;;;;;;;;;5048261;28;20187;-56
2022/03/01 13:43:53;;;;;;;45.47;8.80;;;;;;;;;;5059383;28;20279;-55
2022/03/01 13:46:19;;;;;;;95.97;17.80;;;;;;;;;;5024053;28;20201;-57
2022/03/01 13:48:45;;;;;;;80.95;15.13;;;;;;;;;;5034005;28;20266;-56
2022/03/01 13:51:11;;;;;;;68.57;13.45;;;;;;;;;;5041587;28;20323;-55
2022/03/01 13:53:38;;;;;;;15.88;3.72;;;;;;;;;;5044867;28;20920;-54
2022/03/01 13:56:05;;;;;;;35.25;6.80;;;;;;;;;;5059690;28;20226;-55
2022/03/01 13:58:31;;;;;;;19.02;4.60;;;;;;;;;;5064899;28;20183;-55
2022/03/01 14:00:58;;;;;;;33.38;6.65;;;;;;;;;;5065104;28;20183;-54
2022/03/01 14:03:32;;;;;;;31.45;6.53;;;;;;;;;;5063326;28;20347;-54
2022/03/01 14:06:06;;;;;;;15.60;4.03;;;;;;;;;;5061468;28;20203;-55
2022/03/01 14:08:33;;;;;;;15.15;3.97;;;;;;;;;;5067160;28;20183;-55
2022/03/01 14:11:01;;;;;;;19.42;4.72;;;;;;;;;;5057878;28;20243;-55
2022/03/01 14:13:30;;;;;;;23.48;5.38;;;;;;;;;;5061245;28;20270;-55
2022/03/01 14:16:05;;;;;;;25.55;5.38;;;;;;;;;;5067397;28;20701;-55
2022/03/01 14:18:38;;;;;;;18.30;4.65;;;;;;;;;;5058145;28;20667;-55
2022/03/01 14:21:05;;;;;;;20.27;4.93;;;;;;;;;;5066390;28;20277;-55
2022/03/01 14:23:31;;;;;;;20.35;5.30;;;;;;;;;;5067938;28;20651;-55
2022/03/01 14:25:58;;;;;;;22.85;5.20;;;;;;;;;;5061872;28;20610;-54